createdAt,value
2023-03-22T05:04:14.143Z,10.63
2023-03-22T05:07:17.950Z,11.07
2023-03-22T05:10:21.553Z,10.13
2023-03-22T05:13:26.725Z,9.77
2023-03-22T05:16:30.350Z,10.95
2023-03-22T05:19:33.433Z,11.35
2023-03-22T05:22:40.600Z,9.68
2023-03-22T05:25:46.964Z,9.90
2023-03-22T05:28:51.519Z,10.60
2023-03-22T05:31:55.076Z,9.80
2023-03-22T05:34:58.256Z,10.10
2023-03-22T05:38:02.784Z,9.30
2023-03-22T05:41:06.226Z,10.45
2023-03-22T05:44:09.950Z,9.23
2023-03-22T05:47:13.258Z,10.38
2023-03-22T05:50:21.068Z,9.27
2023-03-22T05:53:24.170Z,10.27
2023-03-22T05:56:27.109Z,10.80
2023-03-22T05:59:30.650Z,9.98
2023-03-22T06:02:33.554Z,11.07
2023-03-22T06:05:39.314Z,10.82
2023-03-22T06:08:43.184Z,11.00
2023-03-22T06:11:46.153Z,11.30
2023-03-22T06:14:50.866Z,10.13
2023-03-22T06:17:54.299Z,10.65
2023-03-22T06:20:57.905Z,12.25
2023-03-22T06:24:01.636Z,12.18
2023-03-22T06:27:04.636Z,12.77
2023-03-22T06:30:08.364Z,12.43
2023-03-22T06:33:13.454Z,12.13
2023-03-22T06:36:17.343Z,12.10
2023-03-22T06:39:22.875Z,12.35
2023-03-22T06:42:26.249Z,11.10
2023-03-22T06:45:33.386Z,12.82
2023-03-22T06:48:36.809Z,12.10
2023-03-22T06:51:40.088Z,12.13
2023-03-22T06:54:43.528Z,12.52
2023-03-22T06:57:46.207Z,12.48
2023-03-22T07:00:49.422Z,10.90
2023-03-22T07:03:53.114Z,11.90
2023-03-22T07:06:57.330Z,11.12
2023-03-22T07:10:00.590Z,11.10
2023-03-22T07:13:03.874Z,9.75
2023-03-22T07:16:07.728Z,8.60
2023-03-22T07:19:12.036Z,9.75
2023-03-22T07:22:14.812Z,9.95
2023-03-22T07:25:18.683Z,9.70
2023-03-22T07:28:23.261Z,10.05
2023-03-22T07:31:26.558Z,10.50
2023-03-22T07:34:29.977Z,11.32
2023-03-22T07:37:33.986Z,10.07
2023-03-22T07:40:37.329Z,10.25
2023-03-22T07:43:53.166Z,9.75
2023-03-22T07:46:59.926Z,10.05
2023-03-22T07:50:03.146Z,11.05
2023-03-22T07:53:06.315Z,10.82
2023-03-22T07:56:10.360Z,10.10
2023-03-22T07:59:13.241Z,10.18
2023-03-22T08:02:16.756Z,10.38
2023-03-22T08:05:20.282Z,10.93
2023-03-22T08:08:24.795Z,9.50
2023-03-22T08:11:27.791Z,10.32
2023-03-22T08:14:36.381Z,8.90
2023-03-22T08:17:40.700Z,9.50
2023-03-22T08:20:45.737Z,9.35
2023-03-22T08:23:51.162Z,9.15
2023-03-22T08:26:56.281Z,9.50
2023-03-22T08:30:01.191Z,9.90
2023-03-22T08:33:04.573Z,10.18
2023-03-22T08:36:12.245Z,9.18
2023-03-22T08:39:15.775Z,9.35
2023-03-22T08:42:22.223Z,8.57
2023-03-22T08:45:25.707Z,9.07
2023-03-22T08:48:30.785Z,7.53
2023-03-22T08:51:34.107Z,7.18
2023-03-22T08:54:40.427Z,7.28
2023-03-22T08:57:50.335Z,7.70
2023-03-22T09:00:53.670Z,7.72
2023-03-22T09:03:57.976Z,8.25
2023-03-22T09:07:01.521Z,7.97
2023-03-22T09:10:04.705Z,8.98
2023-03-22T09:13:07.789Z,8.85
2023-03-22T09:16:11.261Z,8.85
2023-03-22T09:19:14.649Z,8.30
2023-03-22T09:22:17.585Z,9.57
2023-03-22T09:25:21.736Z,8.45
2023-03-22T09:28:25.221Z,9.00
2023-03-22T09:31:28.674Z,8.50
2023-03-22T09:34:33.147Z,9.13
2023-03-22T09:37:36.506Z,9.10
2023-03-22T09:40:47.259Z,9.13
2023-03-22T09:43:57.571Z,8.93
2023-03-22T09:47:04.123Z,8.38
2023-03-22T09:50:18.832Z,8.73
2023-03-22T09:53:41.055Z,8.73
2023-03-22T09:57:02.408Z,8.70
2023-03-22T10:00:18.330Z,8.57
2023-03-22T10:03:48.419Z,8.13
2023-03-22T10:07:01.925Z,8.27
2023-03-22T10:10:20.241Z,8.40
2023-03-22T10:13:31.824Z,8.05
2023-03-22T10:16:35.926Z,8.27
2023-03-22T10:19:56.606Z,7.87
2023-03-22T10:23:01.777Z,7.12
2023-03-22T10:26:06.638Z,7.20
2023-03-22T10:29:33.099Z,8.13
2023-03-22T10:33:05.015Z,7.20
2023-03-22T10:36:13.657Z,7.15
2023-03-22T10:39:38.480Z,6.75
2023-03-22T10:42:52.531Z,7.00
2023-03-22T10:45:56.977Z,7.30
2023-03-22T10:49:00.988Z,7.82
2023-03-22T10:52:12.843Z,7.10
2023-03-22T10:55:17.189Z,7.53
2023-03-22T10:58:22.278Z,7.10
2023-03-22T11:01:30.878Z,7.28
2023-03-22T11:04:37.535Z,7.35
2023-03-22T11:07:45.003Z,7.90
2023-03-22T11:10:52.386Z,7.68
2023-03-22T11:13:56.694Z,7.47
2023-03-22T11:17:08.678Z,7.82
2023-03-22T11:20:17.410Z,7.45
2023-03-22T11:23:21.817Z,7.35
2023-03-22T11:26:29.252Z,8.23
2023-03-22T11:29:46.692Z,8.05
2023-03-22T11:33:00.986Z,8.38
2023-03-22T11:36:18.627Z,8.65
2023-03-22T11:39:22.426Z,8.82
2023-03-22T11:42:26.620Z,8.10
2023-03-22T11:45:36.904Z,8.57
2023-03-22T11:48:41.956Z,7.93
2023-03-22T11:51:46.712Z,7.82
2023-03-22T11:54:50.527Z,8.23
2023-03-22T11:57:56.629Z,8.05
2023-03-22T12:01:02.243Z,8.30
2023-03-22T12:04:10.389Z,8.63
2023-03-22T12:07:17.317Z,8.45
2023-03-22T12:10:26.646Z,7.62
2023-03-22T12:13:48.480Z,7.80
2023-03-22T12:16:55.268Z,7.70
2023-03-22T12:20:11.325Z,7.30
2023-03-22T12:23:17.937Z,7.57
2023-03-22T12:26:26.496Z,8.48
2023-03-22T12:29:31.045Z,7.87
2023-03-22T12:32:39.774Z,6.95
2023-03-22T12:35:46.755Z,7.57
2023-03-22T12:38:56.832Z,7.65
2023-03-22T12:42:05.411Z,6.62
2023-03-22T12:45:16.942Z,7.17
2023-03-22T12:48:32.016Z,6.82
2023-03-22T12:51:35.583Z,7.72
2023-03-22T12:54:41.049Z,6.60
2023-03-22T12:57:44.764Z,6.37
2023-03-22T13:00:58.143Z,6.53
2023-03-22T13:04:26.680Z,5.40
2023-03-22T13:07:47.822Z,5.15
2023-03-22T13:11:03.417Z,4.85
2023-03-22T13:14:06.855Z,4.80
2023-03-22T13:17:33.535Z,3.95
2023-03-22T13:20:41.161Z,4.15
2023-03-22T13:23:53.164Z,3.33
2023-03-22T13:26:59.247Z,2.80
2023-03-22T13:30:04.757Z,2.95
2023-03-22T13:33:10.482Z,3.22
2023-03-22T13:36:26.074Z,3.85
2023-03-22T13:39:34.739Z,3.70
2023-03-22T13:42:41.537Z,3.90
2023-03-22T13:46:19.881Z,3.92
2023-03-22T13:49:32.061Z,4.18
2023-03-22T13:52:53.777Z,3.62
2023-03-22T13:55:58.880Z,3.67
2023-03-22T13:59:04.998Z,3.83
2023-03-22T14:02:11.030Z,3.92
2023-03-22T14:05:19.988Z,3.78
2023-03-22T14:08:28.428Z,3.90
2023-03-22T14:11:46.909Z,3.42
2023-03-22T14:14:55.811Z,3.55
2023-03-22T14:21:30.108Z,3.40
